sensor_id;sensor_type;location;lat;lon;timestamp;P1;durP1;ratioP1;P2;durP2;ratioP2
14520;SDS011;7347;50.844;4.490;2023-11-21T08:49:57;12.77;;;5.00;;
14520;SDS011;7347;50.844;4.490;2023-11-21T08:52:24;12.70;;;5.50;;
14520;SDS011;7347;50.844;4.490;2023-11-21T08:54:51;12.57;;;4.73;;
14520;SDS011;7347;50.844;4.490;2023-11-21T08:57:21;14.43;;;4.80;;
14520;SDS011;7347;50.844;4.490;2023-11-21T08:59:48;10.87;;;5.00;;
14520;SDS011;7347;50.844;4.490;2023-11-21T09:02:20;11.50;;;5.53;;
14520;SDS011;7347;50.844;4.490;2023-11-21T09:04:48;11.60;;;4.60;;
14520;SDS011;7347;50.844;4.490;2023-11-21T09:07:17;12.13;;;5.50;;
14520;SDS011;7347;50.844;4.490;2023-11-21T09:09:45;12.17;;;4.97;;
14520;SDS011;7347;50.844;4.490;2023-11-21T09:12:12;14.40;;;4.80;;
14520;SDS011;7347;50.844;4.490;2023-11-21T09:14:39;15.53;;;5.20;;
14520;SDS011;7347;50.844;4.490;2023-11-21T09:17:06;12.57;;;4.83;;
14520;SDS011;7347;50.844;4.490;2023-11-21T09:19:36;14.03;;;5.00;;
14520;SDS011;7347;50.844;4.490;2023-11-21T09:22:03;14.23;;;5.43;;
14520;SDS011;7347;50.844;4.490;2023-11-21T09:24:32;15.07;;;5.40;;
14520;SDS011;7347;50.844;4.490;2023-11-21T09:26:59;18.80;;;5.93;;
14520;SDS011;7347;50.844;4.490;2023-11-21T09:29:26;14.87;;;5.47;;
14520;SDS011;7347;50.844;4.490;2023-11-21T09:31:54;15.43;;;5.17;;
14520;SDS011;7347;50.844;4.490;2023-11-21T09:34:24;17.13;;;4.97;;
14520;SDS011;7347;50.844;4.490;2023-11-21T09:36:51;15.27;;;4.97;;
14520;SDS011;7347;50.844;4.490;2023-11-21T09:39:19;14.33;;;5.60;;
14520;SDS011;7347;50.844;4.490;2023-11-21T09:41:49;13.90;;;5.33;;
14520;SDS011;7347;50.844;4.490;2023-11-21T09:44:19;15.33;;;6.10;;
14520;SDS011;7347;50.844;4.490;2023-11-21T09:46:53;15.37;;;4.93;;
14520;SDS011;7347;50.844;4.490;2023-11-21T09:49:24;12.63;;;4.37;;
14520;SDS011;7347;50.844;4.490;2023-11-21T09:51:53;14.30;;;4.90;;
14520;SDS011;7347;50.844;4.490;2023-11-21T09:54:22;17.23;;;5.80;;
14520;SDS011;7347;50.844;4.490;2023-11-21T09:56:50;14.57;;;5.80;;
14520;SDS011;7347;50.844;4.490;2023-11-21T09:59:17;12.93;;;5.27;;
14520;SDS011;7347;50.844;4.490;2023-11-21T10:01:46;12.20;;;5.03;;
14520;SDS011;7347;50.844;4.490;2023-11-21T10:04:13;15.20;;;5.50;;
14520;SDS011;7347;50.844;4.490;2023-11-21T10:06:41;16.67;;;5.30;;
14520;SDS011;7347;50.844;4.490;2023-11-21T10:09:08;13.43;;;5.03;;
14520;SDS011;7347;50.844;4.490;2023-11-21T10:11:38;14.40;;;5.20;;
14520;SDS011;7347;50.844;4.490;2023-11-21T10:14:09;18.90;;;6.47;;
14520;SDS011;7347;50.844;4.490;2023-11-21T10:16:38;13.83;;;5.13;;
14520;SDS011;7347;50.844;4.490;2023-11-21T10:19:07;13.03;;;5.00;;
14520;SDS011;7347;50.844;4.490;2023-11-21T10:21:39;15.07;;;4.97;;
14520;SDS011;7347;50.844;4.490;2023-11-21T10:24:06;14.33;;;5.47;;
14520;SDS011;7347;50.844;4.490;2023-11-21T10:26:33;12.50;;;5.57;;
14520;SDS011;7347;50.844;4.490;2023-11-21T10:29:01;9.77;;;4.30;;
14520;SDS011;7347;50.844;4.490;2023-11-21T10:31:31;13.80;;;6.30;;
14520;SDS011;7347;50.844;4.490;2023-11-21T10:34:11;9.17;;;4.20;;
14520;SDS011;7347;50.844;4.490;2023-11-21T10:36:39;10.30;;;4.53;;
14520;SDS011;7347;50.844;4.490;2023-11-21T10:39:06;11.23;;;4.57;;
14520;SDS011;7347;50.844;4.490;2023-11-21T10:41:34;12.87;;;4.93;;
14520;SDS011;7347;50.844;4.490;2023-11-21T10:44:02;12.67;;;3.97;;
14520;SDS011;7347;50.844;4.490;2023-11-21T10:46:32;10.27;;;4.90;;
14520;SDS011;7347;50.844;4.490;2023-11-21T10:49:00;11.23;;;4.73;;
14520;SDS011;7347;50.844;4.490;2023-11-21T10:51:27;11.60;;;4.90;;
14520;SDS011;7347;50.844;4.490;2023-11-21T10:53:55;11.50;;;4.53;;
14520;SDS011;7347;50.844;4.490;2023-11-21T10:56:25;11.23;;;4.70;;
14520;SDS011;7347;50.844;4.490;2023-11-21T10:58:55;9.53;;;4.57;;
14520;SDS011;7347;50.844;4.490;2023-11-21T11:01:23;8.07;;;4.13;;
14520;SDS011;7347;50.844;4.490;2023-11-21T11:03:55;12.03;;;5.53;;
14520;SDS011;7347;50.844;4.490;2023-11-21T11:06:22;8.80;;;3.97;;
14520;SDS011;7347;50.844;4.490;2023-11-21T11:08:52;12.70;;;5.17;;
14520;SDS011;7347;50.844;4.490;2023-11-21T11:11:20;8.07;;;4.30;;
14520;SDS011;7347;50.844;4.490;2023-11-21T11:13:47;12.37;;;4.40;;
14520;SDS011;7347;50.844;4.490;2023-11-21T11:16:14;10.87;;;4.60;;
14520;SDS011;7347;50.844;4.490;2023-11-21T11:18:43;10.33;;;4.80;;
14520;SDS011;7347;50.844;4.490;2023-11-21T11:21:15;16.40;;;5.33;;
14520;SDS011;7347;50.844;4.490;2023-11-21T11:24:05;11.27;;;4.87;;
14520;SDS011;7347;50.844;4.490;2023-11-21T11:26:58;12.80;;;5.43;;
14520;SDS011;7347;50.844;4.490;2023-11-21T11:29:35;11.63;;;4.80;;
14520;SDS011;7347;50.844;4.490;2023-11-21T11:32:10;10.70;;;5.37;;
14520;SDS011;7347;50.844;4.490;2023-11-21T11:34:47;11.97;;;4.87;;
14520;SDS011;7347;50.844;4.490;2023-11-21T11:37:23;9.23;;;4.70;;
14520;SDS011;7347;50.844;4.490;2023-11-21T11:39:50;12.43;;;5.93;;
14520;SDS011;7347;50.844;4.490;2023-11-21T11:42:19;11.80;;;4.57;;
14520;SDS011;7347;50.844;4.490;2023-11-21T11:44:49;13.37;;;5.23;;
14520;SDS011;7347;50.844;4.490;2023-11-21T11:47:19;11.33;;;5.00;;
14520;SDS011;7347;50.844;4.490;2023-11-21T11:49:55;11.77;;;5.33;;
14520;SDS011;7347;50.844;4.490;2023-11-21T11:52:40;9.37;;;4.70;;
14520;SDS011;7347;50.844;4.490;2023-11-21T11:55:08;9.43;;;4.70;;
14520;SDS011;7347;50.844;4.490;2023-11-21T11:57:36;12.63;;;5.37;;
14520;SDS011;7347;50.844;4.490;2023-11-21T12:03:02;11.20;;;4.80;;
14520;SDS011;7347;50.844;4.490;2023-11-21T12:05:31;11.67;;;4.83;;
14520;SDS011;7347;50.844;4.490;2023-11-21T12:08:02;14.77;;;5.10;;
14520;SDS011;7347;50.844;4.490;2023-11-21T12:10:30;9.57;;;4.70;;
14520;SDS011;7347;50.844;4.490;2023-11-21T12:13:00;9.60;;;4.93;;
14520;SDS011;7347;50.844;4.490;2023-11-21T12:15:28;11.27;;;5.10;;
14520;SDS011;7347;50.844;4.490;2023-11-21T12:17:56;10.77;;;4.30;;
14520;SDS011;7347;50.844;4.490;2023-11-21T12:20:24;12.70;;;5.40;;
14520;SDS011;7347;50.844;4.490;2023-11-21T12:22:53;10.47;;;4.97;;
14520;SDS011;7347;50.844;4.490;2023-11-21T12:25:22;10.67;;;5.03;;
14520;SDS011;7347;50.844;4.490;2023-11-21T12:27:53;9.47;;;4.90;;
14520;SDS011;7347;50.844;4.490;2023-11-21T12:30:21;9.30;;;5.20;;
14520;SDS011;7347;50.844;4.490;2023-11-21T12:32:49;9.90;;;4.37;;
14520;SDS011;7347;50.844;4.490;2023-11-21T12:35:17;9.27;;;4.60;;
14520;SDS011;7347;50.844;4.490;2023-11-21T12:37:44;8.47;;;4.57;;
14520;SDS011;7347;50.844;4.490;2023-11-21T12:40:14;7.80;;;3.90;;
14520;SDS011;7347;50.844;4.490;2023-11-21T12:42:44;9.03;;;4.40;;
14520;SDS011;7347;50.844;4.490;2023-11-21T12:45:20;8.97;;;4.00;;
14520;SDS011;7347;50.844;4.490;2023-11-21T12:47:50;9.27;;;4.77;;
14520;SDS011;7347;50.844;4.490;2023-11-21T12:50:21;10.17;;;5.37;;
14520;SDS011;7347;50.844;4.490;2023-11-21T12:52:52;9.90;;;4.67;;
14520;SDS011;7347;50.844;4.490;2023-11-21T12:55:19;11.00;;;4.37;;
14520;SDS011;7347;50.844;4.490;2023-11-21T12:57:49;12.37;;;4.47;;
14520;SDS011;7347;50.844;4.490;2023-11-21T13:00:19;9.10;;;3.83;;
14520;SDS011;7347;50.844;4.490;2023-11-21T13:02:53;9.93;;;4.73;;
14520;SDS011;7347;50.844;4.490;2023-11-21T13:05:28;8.03;;;4.37;;
14520;SDS011;7347;50.844;4.490;2023-11-21T13:07:56;8.67;;;3.87;;
14520;SDS011;7347;50.844;4.490;2023-11-21T13:10:28;7.73;;;2.73;;
14520;SDS011;7347;50.844;4.490;2023-11-21T13:12:58;4.57;;;2.73;;
14520;SDS011;7347;50.844;4.490;2023-11-21T13:15:26;4.47;;;2.60;;
14520;SDS011;7347;50.844;4.490;2023-11-21T13:17:53;4.50;;;2.77;;
14520;SDS011;7347;50.844;4.490;2023-11-21T13:20:21;5.40;;;2.77;;
14520;SDS011;7347;50.844;4.490;2023-11-21T13:22:49;5.70;;;2.73;;
14520;SDS011;7347;50.844;4.490;2023-11-21T13:25:21;4.50;;;2.40;;
14520;SDS011;7347;50.844;4.490;2023-11-21T13:27:48;5.63;;;2.40;;
14520;SDS011;7347;50.844;4.490;2023-11-21T13:30:16;4.40;;;2.47;;
14520;SDS011;7347;50.844;4.490;2023-11-21T13:32:48;4.60;;;2.10;;
14520;SDS011;7347;50.844;4.490;2023-11-21T13:35:16;3.87;;;1.90;;
14520;SDS011;7347;50.844;4.490;2023-11-21T13:37:47;2.97;;;1.80;;
14520;SDS011;7347;50.844;4.490;2023-11-21T13:40:18;4.10;;;1.80;;
14520;SDS011;7347;50.844;4.490;2023-11-21T13:42:47;1.97;;;1.50;;
14520;SDS011;7347;50.844;4.490;2023-11-21T13:45:19;2.90;;;1.43;;
14520;SDS011;7347;50.844;4.490;2023-11-21T13:47:48;1.77;;;1.13;;
14520;SDS011;7347;50.844;4.490;2023-11-21T13:50:17;5.97;;;1.63;;
14520;SDS011;7347;50.844;4.490;2023-11-21T13:52:48;5.13;;;1.73;;
14520;SDS011;7347;50.844;4.490;2023-11-21T13:55:16;2.67;;;1.60;;
14520;SDS011;7347;50.844;4.490;2023-11-21T13:57:43;3.17;;;2.07;;
14520;SDS011;7347;50.844;4.490;2023-11-21T14:00:14;2.43;;;1.60;;
14520;SDS011;7347;50.844;4.490;2023-11-21T14:03:07;3.77;;;1.67;;
14520;SDS011;7347;50.844;4.490;2023-11-21T14:05:42;2.00;;;1.53;;
14520;SDS011;7347;50.844;4.490;2023-11-21T14:08:09;3.40;;;1.30;;
14520;SDS011;7347;50.844;4.490;2023-11-21T14:10:41;2.37;;;1.40;;
14520;SDS011;7347;50.844;4.490;2023-11-21T14:13:09;4.50;;;1.50;;
14520;SDS011;7347;50.844;4.490;2023-11-21T14:15:38;1.97;;;1.20;;
14520;SDS011;7347;50.844;4.490;2023-11-21T14:18:09;3.20;;;1.33;;
14520;SDS011;7347;50.844;4.490;2023-11-21T14:20:38;1.40;;;1.00;;
14520;SDS011;7347;50.844;4.490;2023-11-21T14:23:05;2.23;;;1.30;;
14520;SDS011;7347;50.844;4.490;2023-11-21T14:25:32;3.10;;;1.10;;
14520;SDS011;7347;50.844;4.490;2023-11-21T14:28:01;1.60;;;0.97;;
14520;SDS011;7347;50.844;4.490;2023-11-21T14:30:29;2.87;;;1.60;;
14520;SDS011;7347;50.844;4.490;2023-11-21T14:32:57;3.40;;;1.00;;
14520;SDS011;7347;50.844;4.490;2023-11-21T14:35:25;1.50;;;0.93;;
14520;SDS011;7347;50.844;4.490;2023-11-21T14:37:52;3.70;;;1.07;;
14520;SDS011;7347;50.844;4.490;2023-11-21T14:40:20;3.17;;;1.10;;
14520;SDS011;7347;50.844;4.490;2023-11-21T14:42:49;2.07;;;1.03;;
14520;SDS011;7347;50.844;4.490;2023-11-21T14:45:19;2.33;;;1.00;;
14520;SDS011;7347;50.844;4.490;2023-11-21T14:47:47;1.53;;;0.90;;
14520;SDS011;7347;50.844;4.490;2023-11-21T14:50:22;1.67;;;1.07;;
14520;SDS011;7347;50.844;4.490;2023-11-21T14:53:16;1.90;;;1.00;;
14520;SDS011;7347;50.844;4.490;2023-11-21T14:56:03;2.10;;;1.10;;
14520;SDS011;7347;50.844;4.490;2023-11-21T14:58:29;1.70;;;1.00;;
14520;SDS011;7347;50.844;4.490;2023-11-21T15:00:56;2.03;;;0.90;;
14520;SDS011;7347;50.844;4.490;2023-11-21T15:03:23;1.77;;;0.93;;
14520;SDS011;7347;50.844;4.490;2023-11-21T15:06:08;2.37;;;1.23;;
14520;SDS011;7347;50.844;4.490;2023-11-21T15:08:48;1.80;;;1.00;;
14520;SDS011;7347;50.844;4.490;2023-11-21T15:11:20;1.97;;;1.13;;
14520;SDS011;7347;50.844;4.490;2023-11-21T15:13:50;4.37;;;1.90;;
14520;SDS011;7347;50.844;4.490;2023-11-21T15:16:18;2.53;;;1.80;;
14520;SDS011;7347;50.844;4.490;2023-11-21T15:18:44;4.70;;;1.70;;
14520;SDS011;7347;50.844;4.490;2023-11-21T15:21:11;3.17;;;1.63;;
14520;SDS011;7347;50.844;4.490;2023-11-21T15:23:38;3.50;;;1.80;;
14520;SDS011;7347;50.844;4.490;2023-11-21T15:26:08;5.57;;;1.77;;
14520;SDS011;7347;50.844;4.490;2023-11-21T15:28:35;3.70;;;1.63;;
14520;SDS011;7347;50.844;4.490;2023-11-21T15:31:02;2.73;;;1.40;;
14520;SDS011;7347;50.844;4.490;2023-11-21T15:33:29;2.80;;;1.60;;
14520;SDS011;7347;50.844;4.490;2023-11-21T15:35:56;3.90;;;1.83;;
14520;SDS011;7347;50.844;4.490;2023-11-21T15:38:24;3.43;;;1.67;;
14520;SDS011;7347;50.844;4.490;2023-11-21T15:40:50;3.43;;;1.73;;
14520;SDS011;7347;50.844;4.490;2023-11-21T15:43:19;3.70;;;1.77;;
14520;SDS011;7347;50.844;4.490;2023-11-21T15:45:46;3.43;;;1.63;;
14520;SDS011;7347;50.844;4.490;2023-11-21T15:48:13;4.80;;;2.30;;
14520;SDS011;7347;50.844;4.490;2023-11-21T15:50:42;3.03;;;1.53;;
14520;SDS011;7347;50.844;4.490;2023-11-21T15:53:09;3.70;;;2.03;;
14520;SDS011;7347;50.844;4.490;2023-11-21T15:55:36;5.60;;;2.07;;
14520;SDS011;7347;50.844;4.490;2023-11-21T15:58:07;4.53;;;2.37;;
14520;SDS011;7347;50.844;4.490;2023-11-21T16:00:35;6.43;;;2.80;;
14520;SDS011;7347;50.844;4.490;2023-11-21T16:03:02;4.07;;;2.07;;
14520;SDS011;7347;50.844;4.490;2023-11-21T16:05:29;7.43;;;2.43;;
14520;SDS011;7347;50.844;4.490;2023-11-21T16:07:56;4.07;;;2.27;;
14520;SDS011;7347;50.844;4.490;2023-11-21T16:10:23;4.10;;;1.77;;
14520;SDS011;7347;50.844;4.490;2023-11-21T16:12:49;4.57;;;2.03;;
14520;SDS011;7347;50.844;4.490;2023-11-21T16:15:17;5.90;;;2.53;;
14520;SDS011;7347;50.844;4.490;2023-11-21T16:17:45;7.03;;;2.30;;
14520;SDS011;7347;50.844;4.490;2023-11-21T16:20:12;5.93;;;2.67;;
14520;SDS011;7347;50.844;4.490;2023-11-21T16:22:40;5.63;;;2.57;;
14520;SDS011;7347;50.844;4.490;2023-11-21T16:25:07;6.50;;;3.00;;
14520;SDS011;7347;50.844;4.490;2023-11-21T16:27:36;5.07;;;2.17;;
14520;SDS011;7347;50.844;4.490;2023-11-21T16:30:03;4.87;;;2.33;;
14520;SDS011;7347;50.844;4.490;2023-11-21T16:32:31;6.13;;;2.67;;
14520;SDS011;7347;50.844;4.490;2023-11-21T16:35:02;6.93;;;2.97;;
14520;SDS011;7347;50.844;4.490;2023-11-21T16:37:29;6.30;;;2.70;;
14520;SDS011;7347;50.844;4.490;2023-11-21T16:39:56;6.50;;;2.77;;
14520;SDS011;7347;50.844;4.490;2023-11-21T16:42:23;6.10;;;2.80;;
14520;SDS011;7347;50.844;4.490;2023-11-21T16:44:52;4.90;;;2.23;;
14520;SDS011;7347;50.844;4.490;2023-11-21T16:47:19;5.33;;;2.83;;
14520;SDS011;7347;50.844;4.490;2023-11-21T16:49:48;7.17;;;2.97;;
14520;SDS011;7347;50.844;4.490;2023-11-21T16:52:16;6.00;;;2.70;;
14520;SDS011;7347;50.844;4.490;2023-11-21T16:54:47;8.17;;;3.20;;
14520;SDS011;7347;50.844;4.490;2023-11-21T16:57:14;7.40;;;3.50;;
14520;SDS011;7347;50.844;4.490;2023-11-21T16:59:41;6.63;;;3.10;;
14520;SDS011;7347;50.844;4.490;2023-11-21T17:02:09;9.50;;;3.10;;
14520;SDS011;7347;50.844;4.490;2023-11-21T17:04:36;11.30;;;3.80;;
14520;SDS011;7347;50.844;4.490;2023-11-21T17:07:06;5.37;;;2.77;;
14520;SDS011;7347;50.844;4.490;2023-11-21T17:09:35;5.00;;;2.57;;
14520;SDS011;7347;50.844;4.490;2023-11-21T17:12:01;7.30;;;2.57;;
14520;SDS011;7347;50.844;4.490;2023-11-21T17:14:30;7.00;;;3.00;;
14520;SDS011;7347;50.844;4.490;2023-11-21T17:16:58;8.27;;;3.03;;
14520;SDS011;7347;50.844;4.490;2023-11-21T17:19:25;6.93;;;2.90;;
14520;SDS011;7347;50.844;4.490;2023-11-21T17:21:56;6.20;;;3.00;;
14520;SDS011;7347;50.844;4.490;2023-11-21T17:24:23;7.83;;;3.20;;
14520;SDS011;7347;50.844;4.490;2023-11-21T17:26:51;8.40;;;3.27;;
14520;SDS011;7347;50.844;4.490;2023-11-21T17:29:19;7.60;;;3.67;;
14520;SDS011;7347;50.844;4.490;2023-11-21T17:31:45;8.53;;;3.17;;
14520;SDS011;7347;50.844;4.490;2023-11-21T17:34:13;7.37;;;3.27;;
14520;SDS011;7347;50.844;4.490;2023-11-21T17:36:44;9.70;;;3.93;;
14520;SDS011;7347;50.844;4.490;2023-11-21T17:39:10;7.27;;;2.83;;
14520;SDS011;7347;50.844;4.490;2023-11-21T17:41:38;8.53;;;3.57;;
14520;SDS011;7347;50.844;4.490;2023-11-21T17:44:06;7.00;;;2.93;;
14520;SDS011;7347;50.844;4.490;2023-11-21T17:46:33;6.57;;;2.70;;
14520;SDS011;7347;50.844;4.490;2023-11-21T17:49:01;8.47;;;3.70;;
14520;SDS011;7347;50.844;4.490;2023-11-21T17:51:28;8.10;;;2.77;;
14520;SDS011;7347;50.844;4.490;2023-11-21T17:53:55;8.80;;;3.20;;
14520;SDS011;7347;50.844;4.490;2023-11-21T17:56:26;7.20;;;3.27;;
14520;SDS011;7347;50.844;4.490;2023-11-21T17:58:53;8.03;;;3.20;;
14520;SDS011;7347;50.844;4.490;2023-11-21T18:01:23;7.70;;;3.43;;
14520;SDS011;7347;50.844;4.490;2023-11-21T18:03:55;9.60;;;3.37;;
14520;SDS011;7347;50.844;4.490;2023-11-21T18:06:23;9.97;;;3.03;;
14520;SDS011;7347;50.844;4.490;2023-11-21T18:08:50;8.17;;;3.50;;
14520;SDS011;7347;50.844;4.490;2023-11-21T18:11:17;9.97;;;4.13;;
14520;SDS011;7347;50.844;4.490;2023-11-21T18:13:44;8.73;;;3.37;;
14520;SDS011;7347;50.844;4.490;2023-11-21T18:16:10;12.00;;;4.00;;
14520;SDS011;7347;50.844;4.490;2023-11-21T18:18:39;10.97;;;3.67;;
14520;SDS011;7347;50.844;4.490;2023-11-21T18:21:06;8.87;;;4.27;;
14520;SDS011;7347;50.844;4.490;2023-11-21T18:23:33;10.43;;;4.33;;
14520;SDS011;7347;50.844;4.490;2023-11-21T18:26:00;11.67;;;4.33;;
14520;SDS011;7347;50.844;4.490;2023-11-21T18:28:27;13.47;;;4.40;;
14520;SDS011;7347;50.844;4.490;2023-11-21T18:30:53;10.10;;;3.80;;
14520;SDS011;7347;50.844;4.490;2023-11-21T18:33:20;11.03;;;4.43;;
14520;SDS011;7347;50.844;4.490;2023-11-21T18:35:49;12.60;;;4.70;;
14520;SDS011;7347;50.844;4.490;2023-11-21T18:38:16;11.70;;;4.17;;
14520;SDS011;7347;50.844;4.490;2023-11-21T18:40:43;13.07;;;4.17;;
14520;SDS011;7347;50.844;4.490;2023-11-21T18:43:10;11.30;;;4.83;;
14520;SDS011;7347;50.844;4.490;2023-11-21T18:45:37;12.43;;;4.80;;
14520;SDS011;7347;50.844;4.490;2023-11-21T18:48:04;10.63;;;4.53;;
14520;SDS011;7347;50.844;4.490;2023-11-21T18:50:31;11.83;;;5.00;;
14520;SDS011;7347;50.844;4.490;2023-11-21T18:52:59;10.03;;;4.13;;
14520;SDS011;7347;50.844;4.490;2023-11-21T18:55:26;10.43;;;4.53;;
14520;SDS011;7347;50.844;4.490;2023-11-21T18:57:53;12.07;;;4.00;;
14520;SDS011;7347;50.844;4.490;2023-11-21T19:00:20;11.20;;;4.73;;
14520;SDS011;7347;50.844;4.490;2023-11-21T19:02:47;8.43;;;3.93;;
14520;SDS011;7347;50.844;4.490;2023-11-21T19:05:14;9.63;;;4.03;;
14520;SDS011;7347;50.844;4.490;2023-11-21T19:07:41;10.33;;;3.17;;
14520;SDS011;7347;50.844;4.490;2023-11-21T19:10:09;6.60;;;3.00;;
14520;SDS011;7347;50.844;4.490;2023-11-21T19:12:36;5.93;;;2.57;;
14520;SDS011;7347;50.844;4.490;2023-11-21T19:15:04;6.00;;;2.83;;
14520;SDS011;7347;50.844;4.490;2023-11-21T19:17:33;8.70;;;3.20;;
14520;SDS011;7347;50.844;4.490;2023-11-21T19:20:01;6.97;;;2.97;;
14520;SDS011;7347;50.844;4.490;2023-11-21T19:22:28;8.90;;;3.20;;
14520;SDS011;7347;50.844;4.490;2023-11-21T19:24:55;9.17;;;3.63;;
14520;SDS011;7347;50.844;4.490;2023-11-21T19:27:23;10.43;;;4.20;;
14520;SDS011;7347;50.844;4.490;2023-11-21T19:29:49;13.97;;;4.20;;
14520;SDS011;7347;50.844;4.490;2023-11-21T19:32:16;11.87;;;3.87;;
14520;SDS011;7347;50.844;4.490;2023-11-21T19:34:43;9.53;;;3.70;;
14520;SDS011;7347;50.844;4.490;2023-11-21T19:37:10;11.10;;;4.03;;
14520;SDS011;7347;50.844;4.490;2023-11-21T19:39:37;10.40;;;3.87;;
14520;SDS011;7347;50.844;4.490;2023-11-21T19:42:04;10.63;;;3.83;;
14520;SDS011;7347;50.844;4.490;2023-11-21T19:44:32;12.13;;;4.60;;
14520;SDS011;7347;50.844;4.490;2023-11-21T19:47:01;11.57;;;4.23;;
14520;SDS011;7347;50.844;4.490;2023-11-21T19:49:28;10.40;;;4.63;;
14520;SDS011;7347;50.844;4.490;2023-11-21T19:51:55;12.30;;;4.77;;
14520;SDS011;7347;50.844;4.490;2023-11-21T19:54:22;14.87;;;5.57;;
14520;SDS011;7347;50.844;4.490;2023-11-21T19:56:49;8.50;;;3.33;;
14520;SDS011;7347;50.844;4.490;2023-11-21T19:59:15;9.60;;;3.57;;
14520;SDS011;7347;50.844;4.490;2023-11-21T20:01:44;13.27;;;4.57;;
14520;SDS011;7347;50.844;4.490;2023-11-21T20:04:10;11.00;;;4.60;;
14520;SDS011;7347;50.844;4.490;2023-11-21T20:06:38;10.93;;;3.93;;
14520;SDS011;7347;50.844;4.490;2023-11-21T20:09:04;11.93;;;3.60;;
14520;SDS011;7347;50.844;4.490;2023-11-21T20:11:31;12.93;;;4.30;;
14520;SDS011;7347;50.844;4.490;2023-11-21T20:13:58;10.90;;;4.07;;
14520;SDS011;7347;50.844;4.490;2023-11-21T20:16:25;10.87;;;4.10;;
14520;SDS011;7347;50.844;4.490;2023-11-21T20:18:53;13.60;;;3.90;;
14520;SDS011;7347;50.844;4.490;2023-11-21T20:21:20;13.90;;;4.93;;
14520;SDS011;7347;50.844;4.490;2023-11-21T20:23:47;12.57;;;3.83;;
14520;SDS011;7347;50.844;4.490;2023-11-21T20:26:19;13.07;;;4.13;;
14520;SDS011;7347;50.844;4.490;2023-11-21T20:28:47;10.80;;;4.37;;
14520;SDS011;7347;50.844;4.490;2023-11-21T20:31:14;14.43;;;4.83;;
14520;SDS011;7347;50.844;4.490;2023-11-21T20:33:41;12.17;;;4.47;;
14520;SDS011;7347;50.844;4.490;2023-11-21T20:36:09;11.23;;;4.60;;
14520;SDS011;7347;50.844;4.490;2023-11-21T20:38:36;17.47;;;5.27;;
14520;SDS011;7347;50.844;4.490;2023-11-21T20:41:03;9.33;;;4.27;;
14520;SDS011;7347;50.844;4.490;2023-11-21T20:43:31;15.97;;;4.90;;
14520;SDS011;7347;50.844;4.490;2023-11-21T20:45:58;10.53;;;4.33;;
14520;SDS011;7347;50.844;4.490;2023-11-21T20:48:25;10.03;;;4.67;;
14520;SDS011;7347;50.844;4.490;2023-11-21T20:50:54;9.43;;;4.00;;
14520;SDS011;7347;50.844;4.490;2023-11-21T20:53:22;14.23;;;5.03;;
14520;SDS011;7347;50.844;4.490;2023-11-21T20:55:49;12.30;;;4.83;;
14520;SDS011;7347;50.844;4.490;2023-11-21T20:58:17;9.63;;;4.10;;
14520;SDS011;7347;50.844;4.490;2023-11-21T21:00:44;12.17;;;4.47;;
14520;SDS011;7347;50.844;4.490;2023-11-21T21:03:11;9.23;;;3.70;;
14520;SDS011;7347;50.844;4.490;2023-11-21T21:05:39;9.73;;;3.67;;
14520;SDS011;7347;50.844;4.490;2023-11-21T21:08:06;8.30;;;3.80;;
14520;SDS011;7347;50.844;4.490;2023-11-21T21:10:35;7.87;;;3.83;;
14520;SDS011;7347;50.844;4.490;2023-11-21T21:13:01;8.70;;;4.07;;
14520;SDS011;7347;50.844;4.490;2023-11-21T21:15:28;11.03;;;4.03;;
14520;SDS011;7347;50.844;4.490;2023-11-21T21:17:55;12.13;;;4.07;;
14520;SDS011;7347;50.844;4.490;2023-11-21T21:20:22;8.40;;;4.20;;
14520;SDS011;7347;50.844;4.490;2023-11-21T21:22:49;8.30;;;4.10;;
14520;SDS011;7347;50.844;4.490;2023-11-21T21:25:18;9.60;;;4.13;;
14520;SDS011;7347;50.844;4.490;2023-11-21T21:27:46;9.97;;;4.30;;
14520;SDS011;7347;50.844;4.490;2023-11-21T21:30:13;12.67;;;4.53;;
14520;SDS011;7347;50.844;4.490;2023-11-21T21:32:40;10.43;;;4.20;;
